FXMM/MSU METAR and TAF weather

Enter ICAO airport designator
Station Type Date Time Source
FXMM METAR 2020/12/04 06:00 UTC NOAA

FXMM 040600Z 36006KT 9999 SCT030 18/11 Q1022


Station Type Date Time Source
FXMM Decoded METAR 2020/12/04 06:00 UTC NOAA

Maseru / Moshoeshoe, Lesotho (FXMM) 29-27S 027-33E
Dec 04, 2020 - 01:00 AM EST / 2020.12.04 0600 UTC
Wind: from the N (360 degrees) at 7 MPH (6 KT):0
Visibility: greater than 7 mile(s):0
Sky conditions: partly cloudy
Temperature: 64 F (18 C)
Dew Point: 51 F (11 C)
Relative Humidity: 63%
Pressure (altimeter): 30.18 in. Hg (1022 hPa)
ob: FXMM 040600Z 36006KT 9999 SCT030 18/11 Q1022
cycle: 6

Station Type Date Time Source
FXMM TAF 2020/03/16 06:37 UTC NOAA

TAF FXMM 160400Z 1606/1706 00000KT 9999 FEW035 TX24/1612Z TN12/1703Z
BECMG 1608/1610 30010KT
BECMG 1612/1614 FEW035CB PROB30
TEMPO 1615/1618 4000 TSRA
BECMG 1620/1624 00000KT CAVOK

Example: see airport list